createdAt,value
2022-08-21T00:00:25.908Z,101130.63
2022-08-21T00:03:02.159Z,101126.28
2022-08-21T00:05:30.217Z,101121.97
2022-08-21T00:07:57.381Z,101121.13
2022-08-21T00:10:25.129Z,101114.94
2022-08-21T00:12:52.053Z,101111.41
2022-08-21T00:15:27.274Z,101107.91
2022-08-21T00:17:56.016Z,101105.41
2022-08-21T00:20:24.191Z,101094.66
2022-08-21T00:22:51.678Z,101095.72
2022-08-21T00:25:24.914Z,101107.47
2022-08-21T00:27:54.310Z,101099.53
2022-08-21T00:30:23.635Z,101107.75
2022-08-21T00:32:52.560Z,101113.28
2022-08-21T00:35:24.188Z,101116.94
2022-08-21T00:37:51.085Z,101111.72
2022-08-21T00:40:28.363Z,101111.84
2022-08-21T00:42:55.300Z,101117.38
2022-08-21T00:45:23.866Z,101123.81
2022-08-21T00:47:53.020Z,101116.78
2022-08-21T00:50:21.936Z,101115.94
2022-08-21T00:52:51.848Z,101122.34
2022-08-21T00:55:19.744Z,101120.59
2022-08-21T00:57:56.781Z,101109.97
2022-08-21T01:00:29.660Z,101120.81
2022-08-21T01:02:59.721Z,101129.09
2022-08-21T01:05:27.826Z,101113.91
2022-08-21T01:07:57.929Z,101121.19
2022-08-21T01:10:25.146Z,101128.41
2022-08-21T01:12:57.423Z,101119.50
2022-08-21T01:15:31.726Z,101116.94
2022-08-21T01:17:58.844Z,101125.13
2022-08-21T01:20:32.524Z,101113.53
2022-08-21T01:23:02.259Z,101116.34
2022-08-21T01:25:29.082Z,101120.88
2022-08-21T01:27:56.645Z,101124.53
2022-08-21T01:30:27.301Z,101121.94
2022-08-21T01:32:55.146Z,101122.97
2022-08-21T01:35:23.005Z,101129.25
2022-08-21T01:37:50.073Z,101125.75
2022-08-21T01:40:18.187Z,101130.34
2022-08-21T01:42:46.923Z,101129.47
2022-08-21T01:45:14.930Z,101122.44
2022-08-21T01:47:42.502Z,101129.66
2022-08-21T01:50:15.763Z,101127.09
2022-08-21T01:52:43.340Z,101127.13
2022-08-21T01:55:11.342Z,101122.75
2022-08-21T01:57:38.787Z,101121.91
2022-08-21T02:00:10.782Z,101114.78
2022-08-21T02:02:37.950Z,101115.81
2022-08-21T02:05:06.406Z,101112.31
2022-08-21T02:07:43.139Z,101118.59
2022-08-21T02:10:12.223Z,101115.19
2022-08-21T02:12:39.068Z,101111.63
2022-08-21T02:15:07.692Z,101118.00
2022-08-21T02:17:41.453Z,101107.31
2022-08-21T02:20:09.529Z,101107.44
2022-08-21T02:22:36.345Z,101107.53
2022-08-21T02:25:03.520Z,101101.31
2022-08-21T02:27:30.295Z,101104.97
2022-08-21T02:30:00.907Z,101096.97
2022-08-21T02:32:27.720Z,101105.97
2022-08-21T02:34:54.961Z,101090.84
2022-08-21T02:37:21.798Z,101098.94
2022-08-21T02:39:48.996Z,101099.94
2022-08-21T02:42:15.886Z,101100.03
2022-08-21T02:44:42.971Z,101096.50
2022-08-21T02:47:09.737Z,101094.81
2022-08-21T02:49:36.553Z,101093.97
2022-08-21T02:52:03.634Z,101086.00
2022-08-21T02:54:30.416Z,101079.88
2022-08-21T02:56:57.258Z,101083.50
2022-08-21T02:59:24.092Z,101088.03
2022-08-21T03:01:50.900Z,101085.44
2022-08-21T03:04:17.740Z,101088.22
2022-08-21T03:06:44.508Z,101082.00
2022-08-21T03:09:11.340Z,101074.91
2022-08-21T03:11:38.190Z,101077.63
2022-08-21T03:14:06.051Z,101085.72
2022-08-21T03:16:35.133Z,101082.22
2022-08-21T03:19:03.109Z,101082.38
2022-08-21T03:21:30.002Z,101077.03
2022-08-21T03:23:56.817Z,101077.06
2022-08-21T03:26:25.097Z,101078.06
2022-08-21T03:28:52.010Z,101079.03
2022-08-21T03:31:19.296Z,101077.31
2022-08-21T03:33:46.121Z,101072.03
2022-08-21T03:36:13.029Z,101078.38
2022-08-21T03:38:40.321Z,101077.50
2022-08-21T03:41:08.350Z,101082.06
2022-08-21T03:43:36.010Z,101077.59
2022-08-21T03:46:04.354Z,101077.59
2022-08-21T03:48:31.423Z,101086.56
2022-08-21T03:50:58.357Z,101070.56
2022-08-21T03:53:26.716Z,101069.69
2022-08-21T03:55:54.870Z,101068.91
2022-08-21T03:58:26.710Z,101075.16
2022-08-21T04:00:57.771Z,101077.00
2022-08-21T04:03:24.973Z,101083.25
2022-08-21T04:05:51.822Z,101078.78
2022-08-21T04:08:22.166Z,101080.53
2022-08-21T04:10:53.105Z,101072.50
2022-08-21T04:13:20.530Z,101084.09
2022-08-21T04:15:47.572Z,101082.22
2022-08-21T04:18:14.459Z,101090.22
2022-08-21T04:20:45.455Z,101079.38
2022-08-21T04:23:23.777Z,101084.63
2022-08-21T04:25:53.496Z,101084.56
2022-08-21T04:28:21.444Z,101079.09
2022-08-21T04:30:51.577Z,101086.22
2022-08-21T04:33:18.533Z,101084.34
2022-08-21T04:35:45.368Z,101087.88
2022-08-21T04:38:12.592Z,101082.41
2022-08-21T04:40:39.386Z,101088.56
2022-08-21T04:43:10.663Z,101084.91
2022-08-21T04:45:45.180Z,101093.75
2022-08-21T04:48:14.470Z,101099.94
2022-08-21T04:51:08.729Z,101094.53
2022-08-21T04:53:53.889Z,101103.44
2022-08-21T04:56:32.189Z,101105.13
2022-08-21T04:59:03.964Z,101093.47
2022-08-21T05:01:35.466Z,101105.91
2022-08-21T05:04:05.493Z,101104.06
2022-08-21T05:06:36.173Z,101108.44
2022-08-21T05:09:03.298Z,101101.22
2022-08-21T05:11:32.211Z,101095.84
2022-08-21T05:13:59.621Z,101105.72
2022-08-21T05:16:36.501Z,101099.34
2022-08-21T05:19:07.666Z,101109.09
2022-08-21T05:21:42.851Z,101113.53
2022-08-21T05:24:10.320Z,101116.09
2022-08-21T05:26:45.532Z,101108.88
2022-08-21T05:29:16.390Z,101111.47
2022-08-21T05:31:43.611Z,101109.63
2022-08-21T05:34:10.556Z,101107.72
2022-08-21T05:36:37.972Z,101107.66
2022-08-21T05:39:04.929Z,101105.78
2022-08-21T05:41:31.898Z,101100.28
2022-08-21T05:44:01.200Z,101100.22
2022-08-21T05:46:28.112Z,101096.47
2022-08-21T05:48:54.893Z,101102.63
2022-08-21T05:51:21.803Z,101095.28
2022-08-21T05:53:49.030Z,101104.97
2022-08-21T05:56:16.383Z,101092.25
2022-08-21T05:58:43.473Z,101095.69
2022-08-21T06:01:11.068Z,101099.16
2022-08-21T06:03:41.249Z,101101.66
2022-08-21T06:06:08.726Z,101104.22
2022-08-21T06:08:35.564Z,101106.75
2022-08-21T06:11:04.436Z,101103.00
2022-08-21T06:13:31.281Z,101115.34
2022-08-21T06:16:16.150Z,101107.97
2022-08-21T06:18:45.464Z,101110.63
2022-08-21T06:21:14.285Z,101105.13
2022-08-21T06:23:42.204Z,101108.53
2022-08-21T06:26:11.276Z,101113.69
2022-08-21T06:28:38.336Z,101111.72
2022-08-21T06:31:19.461Z,101103.41
2022-08-21T06:33:47.256Z,101108.63
2022-08-21T06:36:14.592Z,101121.91
2022-08-21T06:38:41.812Z,101137.03
2022-08-21T06:41:17.636Z,101128.78
2022-08-21T06:43:44.942Z,101122.41
2022-08-21T06:46:11.752Z,101121.41
2022-08-21T06:48:38.685Z,101126.75
2022-08-21T06:51:05.691Z,101129.34
2022-08-21T06:53:32.637Z,101124.75
2022-08-21T06:55:59.577Z,101126.44
2022-08-21T06:58:26.674Z,101120.91
2022-08-21T07:00:57.531Z,101123.56
2022-08-21T07:03:42.014Z,101122.41
2022-08-21T07:06:11.604Z,101116.94
2022-08-21T07:08:39.468Z,101114.94
2022-08-21T07:11:15.453Z,101114.69
2022-08-21T07:13:42.236Z,101113.63
2022-08-21T07:16:09.209Z,101115.31
2022-08-21T07:18:36.079Z,101115.19
2022-08-21T07:21:06.314Z,101100.66
2022-08-21T07:23:47.067Z,101098.66
2022-08-21T07:26:16.621Z,101100.22
2022-08-21T07:28:43.490Z,101094.66
2022-08-21T07:31:11.556Z,101096.09
2022-08-21T07:33:38.387Z,101098.47
2022-08-21T07:36:05.485Z,101095.09
2022-08-21T07:38:32.395Z,101090.28
2022-08-21T07:41:02.528Z,101089.97
2022-08-21T07:43:30.321Z,101083.41
2022-08-21T07:45:58.087Z,101080.06
2022-08-21T07:48:25.530Z,101081.34
2022-08-21T07:50:52.482Z,101080.94
2022-08-21T07:53:19.362Z,101070.44
2022-08-21T07:55:46.182Z,101071.44
2022-08-21T07:58:13.571Z,101066.88
2022-08-21T08:00:41.052Z,101071.94
2022-08-21T08:03:08.054Z,101067.16
2022-08-21T08:05:38.031Z,101073.53
2022-08-21T08:08:04.887Z,101069.38
2022-08-21T08:10:31.736Z,101072.75
2022-08-21T08:12:58.889Z,101064.69
2022-08-21T08:15:28.097Z,101067.47
2022-08-21T08:17:56.178Z,101068.31
2022-08-21T08:20:24.509Z,101067.06
2022-08-21T08:22:51.702Z,101070.16
2022-08-21T08:25:21.361Z,101066.22
2022-08-21T08:27:48.269Z,101055.13
2022-08-21T08:30:19.218Z,101064.84
2022-08-21T08:32:47.109Z,101064.25
2022-08-21T08:35:15.188Z,101068.94
2022-08-21T08:37:43.262Z,101055.72
2022-08-21T08:40:21.813Z,101065.34
2022-08-21T08:42:48.683Z,101067.75
2022-08-21T08:45:22.897Z,101063.84
2022-08-21T08:48:14.270Z,101062.53
2022-08-21T08:50:53.879Z,101058.19
2022-08-21T08:53:33.625Z,101051.00
2022-08-21T08:56:03.371Z,101055.56
2022-08-21T08:58:36.293Z,101053.13
2022-08-21T09:01:15.154Z,101051.56
2022-08-21T09:03:42.048Z,101045.25
2022-08-21T09:06:36.834Z,101050.22
2022-08-21T09:09:34.524Z,101052.13
2022-08-21T09:12:13.313Z,101047.50
2022-08-21T09:14:54.024Z,101051.97
2022-08-21T09:18:15.876Z,101046.91
2022-08-21T09:21:07.058Z,101043.38
2022-08-21T09:24:22.168Z,101040.06
2022-08-21T09:27:11.841Z,101041.22
2022-08-21T09:29:48.742Z,101043.25
2022-08-21T09:32:37.853Z,101041.91
2022-08-21T09:35:14.411Z,101049.34
2022-08-21T09:38:08.303Z,101041.28
2022-08-21T09:40:42.472Z,101037.78
2022-08-21T09:43:12.288Z,101035.19
2022-08-21T09:45:42.795Z,101035.25
2022-08-21T09:48:33.335Z,101040.69
2022-08-21T09:51:21.523Z,101038.06
2022-08-21T09:53:54.703Z,101038.06
2022-08-21T09:57:09.392Z,101038.16
2022-08-21T09:59:38.824Z,101037.19
2022-08-21T10:02:32.871Z,101037.78
2022-08-21T10:05:18.599Z,101041.22
2022-08-21T10:07:45.684Z,101030.34
2022-08-21T10:10:33.593Z,101031.91
2022-08-21T10:13:17.413Z,101025.41
2022-08-21T10:16:15.549Z,101019.63
2022-08-21T10:18:54.800Z,101015.53
2022-08-21T10:21:29.571Z,101018.78
2022-08-21T10:24:31.122Z,101013.94
2022-08-21T10:27:24.000Z,101016.06
2022-08-21T10:30:04.618Z,101019.03
2022-08-21T10:33:20.046Z,101006.03
2022-08-21T10:36:27.562Z,101020.38
2022-08-21T10:42:06.484Z,101008.38
2022-08-21T10:44:41.054Z,101010.97
2022-08-21T10:47:25.783Z,101017.06
2022-08-21T10:50:34.012Z,101001.66
2022-08-21T10:53:10.388Z,100993.88
2022-08-21T10:56:12.850Z,100997.19
2022-08-21T10:58:54.642Z,100999.22
2022-08-21T11:01:33.409Z,100987.66
2022-08-21T11:04:32.141Z,100987.44
2022-08-21T11:07:40.733Z,100998.41
2022-08-21T11:10:32.228Z,101000.66
2022-08-21T11:13:38.463Z,100999.22
2022-08-21T11:16:38.930Z,101001.44
2022-08-21T11:19:34.673Z,100996.50
2022-08-21T11:22:25.132Z,101000.59
2022-08-21T11:25:27.662Z,100992.63
2022-08-21T11:28:14.485Z,100993.19
2022-08-21T11:31:10.279Z,100987.00
2022-08-21T11:34:04.787Z,100995.13
2022-08-21T11:37:17.695Z,100997.34
2022-08-21T11:40:26.283Z,101003.47
2022-08-21T11:43:18.793Z,100994.50
2022-08-21T11:45:54.514Z,100993.38
2022-08-21T11:49:17.777Z,100985.59
2022-08-21T11:52:11.805Z,100989.44
2022-08-21T11:55:00.510Z,100979.91
2022-08-21T11:57:38.407Z,100984.16
2022-08-21T12:00:19.273Z,100978.41
2022-08-21T12:03:07.162Z,100980.53
2022-08-21T12:05:40.725Z,100983.59
2022-08-21T12:08:16.164Z,100974.16
2022-08-21T12:11:01.097Z,100987.34
2022-08-21T12:13:39.814Z,100981.72
2022-08-21T12:16:17.163Z,100981.16
2022-08-21T12:18:44.616Z,100974.16
2022-08-21T12:21:28.819Z,100981.75
2022-08-21T12:24:16.073Z,100978.25
2022-08-21T12:27:22.240Z,100983.03
2022-08-21T12:30:12.198Z,100983.13
2022-08-21T12:32:42.045Z,100983.34
2022-08-21T12:35:24.744Z,100976.94
2022-08-21T12:38:07.842Z,100973.03
2022-08-21T12:40:48.726Z,100972.63
2022-08-21T12:43:37.513Z,100974.34
2022-08-21T12:46:05.729Z,100970.22
2022-08-21T12:49:01.664Z,100964.19
2022-08-21T12:51:50.219Z,100969.38
2022-08-21T12:54:30.369Z,100970.25
2022-08-21T12:57:04.878Z,100971.00
2022-08-21T12:59:32.708Z,100964.69
2022-08-21T13:02:04.535Z,100961.88
2022-08-21T13:04:41.311Z,100966.91
2022-08-21T13:07:17.083Z,100960.94
2022-08-21T13:09:53.159Z,100958.19
2022-08-21T13:12:22.781Z,100955.38
2022-08-21T13:14:51.083Z,100955.09
2022-08-21T13:17:25.607Z,100958.34
2022-08-21T13:20:04.080Z,100958.16
2022-08-21T13:22:35.073Z,100953.16
2022-08-21T13:25:06.762Z,100955.53
2022-08-21T13:27:34.969Z,100951.84
2022-08-21T13:30:12.496Z,100951.84
2022-08-21T13:32:46.304Z,100953.88
2022-08-21T13:35:17.449Z,100955.97
2022-08-21T13:37:47.734Z,100956.75
2022-08-21T13:40:52.465Z,100955.13
2022-08-21T13:43:23.682Z,100953.97
2022-08-21T13:45:56.139Z,100949.41
2022-08-21T13:48:27.377Z,100950.47
2022-08-21T13:50:55.356Z,100944.13
2022-08-21T13:53:52.338Z,100945.31
2022-08-21T13:56:44.461Z,100948.47
2022-08-21T13:59:11.472Z,100949.09
2022-08-21T14:02:15.072Z,100942.13
2022-08-21T14:04:55.307Z,100953.03
2022-08-21T14:07:28.564Z,100947.97
2022-08-21T14:09:56.336Z,100937.75
2022-08-21T14:12:43.454Z,100948.50
2022-08-21T14:15:14.490Z,100953.22
2022-08-21T14:17:42.568Z,100950.72
2022-08-21T14:20:27.529Z,100943.22
2022-08-21T14:22:54.528Z,100945.88
2022-08-21T14:25:24.267Z,100945.75
2022-08-21T14:28:10.093Z,100947.28
2022-08-21T14:30:43.573Z,100941.69
2022-08-21T14:33:14.796Z,100936.88
2022-08-21T14:35:43.739Z,100941.25
2022-08-21T14:38:20.737Z,100933.72
2022-08-21T14:41:12.468Z,100929.66
2022-08-21T14:43:39.674Z,100935.84
2022-08-21T14:46:06.519Z,100931.78
2022-08-21T14:48:33.363Z,100931.78
2022-08-21T14:51:00.863Z,100945.69
2022-08-21T14:53:27.841Z,100940.56
2022-08-21T14:56:07.744Z,100938.72
2022-08-21T14:58:42.504Z,100936.19
2022-08-21T15:01:12.820Z,100931.84
2022-08-21T15:03:40.441Z,100935.13
2022-08-21T15:06:09.270Z,100935.75
2022-08-21T15:08:36.566Z,100933.78
2022-08-21T15:11:14.626Z,100928.34
2022-08-21T15:13:44.646Z,100931.16
2022-08-21T15:16:12.771Z,100931.63
2022-08-21T15:18:40.489Z,100932.97
2022-08-21T15:21:07.288Z,100935.81
2022-08-21T15:23:34.646Z,100935.16
2022-08-21T15:26:02.224Z,100925.34
2022-08-21T15:28:31.617Z,100928.19
2022-08-21T15:31:01.538Z,100927.31
2022-08-21T15:33:29.503Z,100925.56
2022-08-21T15:35:56.436Z,100922.94
2022-08-21T15:38:23.395Z,100932.66
2022-08-21T15:40:52.304Z,100926.97
2022-08-21T15:43:34.144Z,100928.69
2022-08-21T15:46:02.070Z,100934.28
2022-08-21T15:48:29.478Z,100919.25
2022-08-21T15:50:56.386Z,100930.16
2022-08-21T15:53:23.345Z,100929.53
2022-08-21T15:55:50.256Z,100923.44
2022-08-21T15:58:20.242Z,100924.41
2022-08-21T16:00:47.988Z,100929.09
2022-08-21T16:03:18.845Z,100924.84
2022-08-21T16:05:49.197Z,100928.03
2022-08-21T16:08:16.440Z,100932.69
2022-08-21T16:10:43.266Z,100932.94
2022-08-21T16:13:29.982Z,100944.28
2022-08-21T16:15:56.918Z,100940.28
2022-08-21T16:18:24.361Z,100942.47
2022-08-21T16:20:51.202Z,100936.56
2022-08-21T16:23:18.022Z,100935.16
2022-08-21T16:25:46.496Z,100933.75
2022-08-21T16:28:17.185Z,100923.94
2022-08-21T16:30:48.425Z,100925.91
2022-08-21T16:33:38.386Z,100929.63
2022-08-21T16:36:09.265Z,100923.38
2022-08-21T16:38:38.137Z,100924.16
2022-08-21T16:41:08.310Z,100927.66
2022-08-21T16:43:35.306Z,100913.03
2022-08-21T16:46:02.384Z,100917.75
2022-08-21T16:48:31.682Z,100920.56
2022-08-21T16:50:59.220Z,100917.19
2022-08-21T16:53:26.634Z,100912.72
2022-08-21T16:55:54.112Z,100915.63
2022-08-21T16:58:31.390Z,100915.63
2022-08-21T17:00:59.678Z,100917.59
2022-08-21T17:03:32.623Z,100911.41
2022-08-21T17:06:00.204Z,100914.22
2022-08-21T17:08:27.278Z,100910.75
2022-08-21T17:10:55.376Z,100914.53
2022-08-21T17:13:22.539Z,100918.47
2022-08-21T17:15:49.395Z,100916.06
2022-08-21T17:18:22.640Z,100917.19
2022-08-21T17:20:50.637Z,100923.78
2022-08-21T17:23:21.514Z,100920.53
2022-08-21T17:25:53.566Z,100917.13
2022-08-21T17:28:28.076Z,100912.00
2022-08-21T17:30:58.329Z,100921.59
2022-08-21T17:33:27.353Z,100917.34
2022-08-21T17:35:54.765Z,100914.13
2022-08-21T17:38:21.651Z,100916.22
2022-08-21T17:40:49.182Z,100912.94
2022-08-21T17:43:16.314Z,100919.69
2022-08-21T17:45:45.057Z,100929.13
2022-08-21T17:48:12.009Z,100935.94
2022-08-21T17:50:39.994Z,100929.97
2022-08-21T17:53:06.827Z,100929.41
2022-08-21T17:55:34.753Z,100927.97
2022-08-21T17:58:03.794Z,100935.47
2022-08-21T18:00:31.729Z,100933.06
2022-08-21T18:03:19.086Z,100931.59
2022-08-21T18:05:48.493Z,100933.81
2022-08-21T18:08:16.282Z,100940.56
2022-08-21T18:10:48.509Z,100936.38
2022-08-21T18:13:24.246Z,100937.66
2022-08-21T18:15:53.627Z,100946.97
2022-08-21T18:18:22.509Z,100943.81
2022-08-21T18:20:50.126Z,100946.91
2022-08-21T18:23:17.091Z,100946.41
2022-08-21T18:25:50.141Z,100948.69
2022-08-21T18:28:17.775Z,100955.44
2022-08-21T18:30:44.719Z,100959.50
2022-08-21T18:33:13.956Z,100959.00
2022-08-21T18:35:42.158Z,100954.06
2022-08-21T18:38:10.088Z,100967.19
2022-08-21T18:40:40.662Z,100963.94
2022-08-21T18:43:15.476Z,100967.16
2022-08-21T18:45:42.805Z,100964.03
2022-08-21T18:48:13.473Z,100965.38
2022-08-21T18:50:42.593Z,100961.28
2022-08-21T18:53:27.592Z,100973.44
2022-08-21T18:55:57.096Z,100966.63
2022-08-21T18:58:25.507Z,100974.25
2022-08-21T19:00:54.156Z,100979.13
2022-08-21T19:03:24.206Z,100978.59
2022-08-21T19:05:53.075Z,100978.94
2022-08-21T19:08:22.807Z,100981.06
2022-08-21T19:10:52.064Z,100982.31
2022-08-21T19:13:21.323Z,100991.66
2022-08-21T19:15:52.718Z,100991.06
2022-08-21T19:18:28.155Z,101000.38
2022-08-21T19:20:57.505Z,101001.63
2022-08-21T19:23:28.941Z,100998.19
2022-08-21T19:26:01.093Z,100993.13
2022-08-21T19:28:36.221Z,101004.16
2022-08-21T19:31:16.383Z,100999.94
2022-08-21T19:33:50.780Z,100999.41
2022-08-21T19:36:17.973Z,101007.34
2022-08-21T19:38:45.982Z,101003.75
2022-08-21T19:41:16.858Z,101006.72
2022-08-21T19:43:57.228Z,101002.44
2022-08-21T19:46:28.955Z,101002.69
2022-08-21T19:48:57.405Z,101003.91
2022-08-21T19:51:25.571Z,101009.47
2022-08-21T19:53:57.082Z,101007.88
2022-08-21T19:56:28.330Z,101001.84
2022-08-21T19:58:56.705Z,101008.38
2022-08-21T20:01:26.329Z,101013.97
2022-08-21T20:03:54.786Z,101005.22
2022-08-21T20:06:25.288Z,101009.03
2022-08-21T20:08:54.536Z,101012.00
2022-08-21T20:11:31.678Z,101010.41
2022-08-21T20:14:00.808Z,101013.38
2022-08-21T20:16:28.622Z,101013.50
2022-08-21T20:18:55.748Z,101021.00
2022-08-21T20:21:22.862Z,101013.03
2022-08-21T20:23:49.979Z,101017.75
2022-08-21T20:26:18.322Z,101020.75
2022-08-21T20:28:45.632Z,101016.47
2022-08-21T20:31:14.626Z,101022.06
2022-08-21T20:33:41.992Z,101015.06
2022-08-21T20:36:09.414Z,101015.25
2022-08-21T20:38:36.622Z,101019.94
2022-08-21T20:41:04.802Z,101017.47
2022-08-21T20:43:38.445Z,101023.09
2022-08-21T20:46:10.082Z,101026.06
2022-08-21T20:48:49.111Z,101028.88
2022-08-21T20:51:39.542Z,101031.81
2022-08-21T20:54:36.900Z,101035.78
2022-08-21T20:57:03.624Z,101033.31
2022-08-21T20:59:33.063Z,101033.47
2022-08-21T21:02:50.871Z,101039.34
2022-08-21T21:05:25.361Z,101041.22
2022-08-21T21:08:26.968Z,101031.75
2022-08-21T21:11:12.035Z,101040.03
2022-08-21T21:13:48.561Z,101038.44
2022-08-21T21:16:32.378Z,101031.44
2022-08-21T21:19:04.812Z,101035.22
2022-08-21T21:22:25.789Z,101033.84
2022-08-21T21:25:15.665Z,101043.84
2022-08-21T21:27:53.539Z,101039.59
2022-08-21T21:30:31.188Z,101046.03
2022-08-21T21:32:58.270Z,101041.66
2022-08-21T21:35:36.467Z,101035.50
2022-08-21T21:38:23.566Z,101044.63
2022-08-21T21:41:06.399Z,101057.31
2022-08-21T21:44:02.504Z,101048.56
2022-08-21T21:47:03.895Z,101062.41
2022-08-21T21:49:56.476Z,101067.91
2022-08-21T21:52:43.382Z,101057.38
2022-08-21T21:55:31.825Z,101059.25
2022-08-21T21:58:34.053Z,101054.09
2022-08-21T22:01:37.896Z,101056.94
2022-08-21T22:04:51.139Z,101067.94
2022-08-21T22:07:29.547Z,101063.69
2022-08-21T22:10:43.237Z,101058.56
2022-08-21T22:13:31.241Z,101052.44
2022-08-21T22:16:03.158Z,101055.19
2022-08-21T22:18:45.010Z,101056.13
2022-08-21T22:21:24.007Z,101058.97
2022-08-21T22:23:56.358Z,101059.13
2022-08-21T22:26:45.347Z,101063.78
2022-08-21T22:29:18.929Z,101058.50
2022-08-21T22:32:04.940Z,101063.16
2022-08-21T22:34:32.292Z,101059.63
2022-08-21T22:37:05.792Z,101056.13
2022-08-21T22:39:44.606Z,101053.56
2022-08-21T22:42:25.203Z,101062.66
2022-08-21T22:44:58.486Z,101058.28
2022-08-21T22:47:48.175Z,101058.53
2022-08-21T22:50:30.493Z,101065.84
2022-08-21T22:53:06.564Z,101057.84
2022-08-21T22:55:44.094Z,101060.66
2022-08-21T22:58:29.046Z,101060.78
2022-08-21T23:01:12.376Z,101057.25
2022-08-21T23:03:51.136Z,101060.09
2022-08-21T23:06:46.425Z,101070.19
2022-08-21T23:09:37.775Z,101070.34
2022-08-21T23:15:18.254Z,101070.56
2022-08-21T23:18:16.184Z,101060.78
2022-08-21T23:21:10.324Z,101069.84
2022-08-21T23:23:48.547Z,101065.56
2022-08-21T23:26:41.929Z,101069.31
2022-08-21T23:29:58.878Z,101061.41
2022-08-21T23:33:00.388Z,101068.69
2022-08-21T23:36:11.677Z,101070.63
2022-08-21T23:38:51.349Z,101074.38
2022-08-21T23:41:39.342Z,101064.66
2022-08-21T23:44:48.652Z,101080.97
2022-08-21T23:47:26.445Z,101082.00
2022-08-21T23:50:26.613Z,101077.66
2022-08-21T23:53:38.690Z,101080.63
2022-08-21T23:56:24.366Z,101081.56
2022-08-21T23:59:28.133Z,101082.56
